Portada
METAR-TAF:

METAR-TAF

Aeroports :

Aeroport de Luena

Luena, Angola

latitud: 11-46-05S, longitud: 19-53-50E, altitud: 1329 m

Observació

L'informe es va fer fa 9 hores i 50 minuts, a les 14:00 UTC
Vent 5 kt del Est
Temperatura 28°C
Humitat 74%
Pressió 1025 hPa
Visibilitat 10 km o més
sense núvols per sota de 1500 mi sense presència de cumulonimbus.

METAR: FNUE 291400Z 09005KT CAVOK 28/23 Q1025

Hora: 00:50 (23:50 UTC)

Pronòstic

L'informe es va fer fa 12 hores i 50 minuts, a les 11:00 UTC
Pronòstic vàlid del 29 a les 12 UTC al 29 a les 24 UTC
Vent 4 kt del Est
Visibilitat 10 km o més
Cel ennuvolat a una alçada de 4000 ft
Evolucionant progressivament
l' 29 a les 21 UTC al 29 a les 23 UTC
Visibilitat: 9000 m

TAF: FNUE 291100Z 2912/2924 08004KT 9999 BKN040 BECMG 2921/2923 9000 NSC

Observacions i pronòstics meteorològics de més de 4000 aeroports (METAR i TAF).

Les estacions disponibles són els punts grocs i vermells al mapa.

Posi el ratolí al punt desitjat per veure el nom de l'estació.

Feu clic per veure les observacions i els pronòstics meteorològics.

Per canviar el mapa: feu clic els botons verds amb una creu de color negre per apropar; al botó verd amb un guió per allunyar la imatge; o en les fletxes verdes per a mapes adjacents.


METAR-TAF: